createdAt,value
2023-01-21T00:01:12.705Z,46.00
2023-01-21T00:03:40.188Z,44.50
2023-01-21T00:06:07.969Z,37.67
2023-01-21T00:08:35.499Z,41.25
2023-01-21T00:11:08.065Z,38.53
2023-01-21T00:13:36.147Z,33.07
2023-01-21T00:16:04.961Z,34.30
2023-01-21T00:18:32.645Z,29.90
2023-01-21T00:20:59.890Z,31.70
2023-01-21T00:23:27.132Z,43.92
2023-01-21T00:26:01.938Z,40.40
2023-01-21T00:28:35.424Z,38.45
2023-01-21T00:33:32.159Z,41.38
2023-01-21T00:36:03.804Z,54.60
2023-01-21T00:38:31.917Z,72.55
2023-01-21T00:41:10.798Z,51.00
2023-01-21T00:43:39.651Z,40.97
2023-01-21T00:46:07.340Z,48.75
2023-01-21T00:48:35.319Z,67.75
2023-01-21T00:51:02.572Z,60.53
2023-01-21T00:53:32.445Z,65.78
2023-01-21T00:56:04.253Z,68.25
2023-01-21T00:58:31.968Z,57.65
2023-01-21T01:01:07.965Z,60.17
2023-01-21T01:03:38.133Z,40.00
2023-01-21T01:06:14.392Z,38.55
2023-01-21T01:08:42.940Z,34.38
2023-01-21T01:11:10.860Z,33.83
2023-01-21T01:13:38.841Z,30.50
2023-01-21T01:16:07.180Z,30.35
2023-01-21T01:18:35.793Z,33.67
2023-01-21T01:21:04.491Z,33.00
2023-01-21T01:23:32.318Z,28.67
2023-01-21T01:26:02.415Z,26.58
2023-01-21T01:28:31.485Z,28.17
2023-01-21T01:30:59.491Z,27.20
2023-01-21T01:33:28.136Z,31.45
2023-01-21T01:35:55.297Z,29.02
2023-01-21T01:38:24.562Z,33.40
2023-01-21T01:40:53.403Z,42.88
2023-01-21T01:43:24.138Z,45.40
2023-01-21T01:45:53.498Z,39.38
2023-01-21T01:48:29.763Z,37.17
2023-01-21T01:51:06.838Z,36.80
2023-01-21T01:53:37.441Z,44.80
2023-01-21T01:56:04.949Z,43.95
2023-01-21T01:58:32.916Z,42.58
2023-01-21T02:01:01.671Z,38.72
2023-01-21T02:03:46.015Z,49.20
2023-01-21T02:08:43.333Z,44.70
2023-01-21T02:11:16.338Z,30.25
2023-01-21T02:13:47.295Z,28.13
2023-01-21T02:16:51.841Z,31.80
2023-01-21T02:19:37.386Z,28.13
2023-01-21T02:22:10.585Z,26.00
2023-01-21T02:25:08.202Z,25.35
2023-01-21T02:28:00.993Z,26.33
2023-01-21T02:30:52.813Z,27.38
2023-01-21T02:33:26.125Z,33.05
2023-01-21T02:36:11.749Z,29.25
2023-01-21T02:38:58.100Z,29.63
2023-01-21T02:41:34.879Z,35.28
2023-01-21T02:44:11.171Z,53.05
2023-01-21T02:46:55.737Z,47.63
2023-01-21T02:49:33.598Z,50.10
2023-01-21T02:52:00.812Z,82.18
2023-01-21T02:54:40.342Z,79.20
2023-01-21T02:57:11.045Z,56.15
2023-01-21T02:59:41.027Z,42.05
2023-01-21T03:02:30.733Z,36.20
2023-01-21T03:05:05.216Z,31.67
2023-01-21T03:07:35.350Z,31.05
2023-01-21T03:10:15.000Z,31.38
2023-01-21T03:13:01.539Z,28.58
2023-01-21T03:15:54.878Z,32.53
2023-01-21T03:18:39.171Z,39.17
2023-01-21T03:21:10.968Z,34.63
2023-01-21T03:23:42.370Z,33.08
2023-01-21T03:26:13.745Z,33.60
2023-01-21T03:28:47.241Z,31.55
2023-01-21T03:33:48.559Z,28.30
2023-01-21T03:36:27.100Z,28.58
2023-01-21T03:38:57.932Z,28.15
2023-01-21T03:41:34.002Z,28.13
2023-01-21T03:44:01.275Z,30.00
2023-01-21T03:47:00.099Z,33.72
2023-01-21T03:49:40.541Z,33.85
2023-01-21T03:52:11.620Z,36.03
2023-01-21T03:54:40.252Z,37.58
2023-01-21T03:57:07.564Z,34.85
2023-01-21T03:59:35.081Z,34.83
2023-01-21T04:02:03.446Z,30.13
2023-01-21T04:04:31.412Z,30.42
2023-01-21T04:06:58.982Z,30.75
2023-01-21T04:09:26.733Z,37.83
2023-01-21T04:11:53.997Z,32.25
2023-01-21T04:14:21.565Z,29.83
2023-01-21T04:16:49.411Z,30.77
2023-01-21T04:19:16.728Z,28.63
2023-01-21T04:21:43.919Z,27.30
2023-01-21T04:24:11.264Z,25.05
2023-01-21T04:26:38.465Z,28.20
2023-01-21T04:29:05.663Z,27.20
2023-01-21T04:31:32.901Z,26.20
2023-01-21T04:34:00.129Z,27.02
2023-01-21T04:36:27.600Z,24.88
2023-01-21T04:38:54.769Z,26.52
2023-01-21T04:41:24.494Z,26.70
2023-01-21T04:43:52.683Z,23.17
2023-01-21T04:46:19.962Z,25.90
2023-01-21T04:48:47.160Z,27.83
2023-01-21T04:51:14.519Z,26.38
2023-01-21T04:53:41.727Z,27.85
2023-01-21T04:56:10.246Z,23.33
2023-01-21T04:58:37.484Z,22.70
2023-01-21T05:01:04.764Z,22.20
2023-01-21T05:03:32.233Z,23.50
2023-01-21T05:05:59.593Z,21.60
2023-01-21T05:08:26.870Z,24.45
2023-01-21T05:10:54.537Z,22.63
2023-01-21T05:13:21.956Z,23.17
2023-01-21T05:15:49.224Z,24.48
2023-01-21T05:18:16.457Z,22.58
2023-01-21T05:20:43.647Z,22.88
2023-01-21T05:23:10.846Z,19.20
2023-01-21T05:25:38.018Z,24.55
2023-01-21T05:28:05.332Z,25.35
2023-01-21T05:30:32.680Z,24.38
2023-01-21T05:32:59.941Z,28.23
2023-01-21T05:35:27.247Z,26.27
2023-01-21T05:37:54.462Z,25.90
2023-01-21T05:40:21.793Z,23.92
2023-01-21T05:42:49.000Z,21.90
2023-01-21T05:45:16.222Z,24.90
2023-01-21T05:47:43.498Z,25.92
2023-01-21T05:50:11.753Z,22.60
2023-01-21T05:52:39.303Z,22.85
2023-01-21T05:55:07.395Z,22.20
2023-01-21T05:57:38.341Z,19.63
2023-01-21T06:00:06.621Z,35.25
2023-01-21T06:02:33.766Z,49.00
2023-01-21T06:05:00.911Z,33.17
2023-01-21T06:07:32.413Z,28.17
2023-01-21T06:10:00.404Z,22.70
2023-01-21T06:12:27.606Z,20.63
2023-01-21T06:14:54.789Z,20.48
2023-01-21T06:17:22.227Z,22.25
2023-01-21T06:19:49.509Z,24.73
2023-01-21T06:22:17.168Z,17.77
2023-01-21T06:24:45.126Z,22.45
2023-01-21T06:27:12.765Z,22.30
2023-01-21T06:29:40.186Z,19.48
2023-01-21T06:32:10.890Z,20.70
2023-01-21T06:34:38.195Z,20.70
2023-01-21T06:37:05.474Z,18.88
2023-01-21T06:39:33.367Z,19.33
2023-01-21T06:42:00.667Z,22.40
2023-01-21T06:44:27.799Z,17.13
2023-01-21T06:47:02.381Z,17.77
2023-01-21T06:49:29.836Z,20.30
2023-01-21T06:51:57.108Z,21.05
2023-01-21T06:54:24.350Z,19.67
2023-01-21T06:56:51.539Z,18.00
2023-01-21T06:59:18.733Z,19.13
2023-01-21T07:01:46.031Z,16.80
2023-01-21T07:04:13.489Z,18.85
2023-01-21T07:06:41.326Z,25.35
2023-01-21T07:09:10.243Z,23.75
2023-01-21T07:11:38.296Z,21.73
2023-01-21T07:14:11.061Z,26.13
2023-01-21T07:16:45.972Z,25.05
2023-01-21T07:19:13.822Z,21.25
2023-01-21T07:21:41.713Z,17.33
2023-01-21T07:24:09.696Z,18.73
2023-01-21T07:26:38.388Z,19.15
2023-01-21T07:29:06.782Z,19.13
2023-01-21T07:31:34.468Z,18.50
2023-01-21T07:34:02.000Z,17.67
2023-01-21T07:36:29.333Z,21.60
2023-01-21T07:38:58.329Z,23.63
2023-01-21T07:41:25.637Z,23.85
2023-01-21T07:43:53.348Z,19.88
2023-01-21T07:46:22.184Z,17.63
2023-01-21T07:48:51.293Z,22.33
2023-01-21T07:51:19.842Z,20.67
2023-01-21T07:53:50.787Z,19.85
2023-01-21T07:56:23.311Z,20.58
2023-01-21T07:58:53.242Z,26.45
2023-01-21T08:01:25.672Z,26.90
2023-01-21T08:04:02.531Z,36.67
2023-01-21T08:06:32.524Z,40.75
2023-01-21T08:09:03.346Z,49.03
2023-01-21T08:11:36.203Z,37.75
2023-01-21T08:14:03.914Z,37.70
2023-01-21T08:16:31.248Z,29.08
2023-01-21T08:21:45.396Z,27.90
2023-01-21T08:24:12.871Z,25.15
2023-01-21T08:26:40.188Z,27.92
2023-01-21T08:29:07.493Z,28.83
2023-01-21T08:31:34.994Z,27.92
2023-01-21T08:34:02.253Z,17.40
2023-01-21T08:36:29.569Z,21.23
2023-01-21T08:39:06.405Z,13.75
2023-01-21T08:41:34.261Z,17.20
2023-01-21T08:44:01.592Z,19.30
2023-01-21T08:46:28.875Z,18.63
2023-01-21T08:48:55.995Z,18.75
2023-01-21T08:51:23.218Z,20.25
2023-01-21T08:53:51.455Z,18.73
2023-01-21T08:56:19.358Z,20.25
2023-01-21T08:58:46.520Z,18.10
2023-01-21T09:01:18.003Z,21.92
2023-01-21T09:03:45.213Z,26.13
2023-01-21T09:06:12.547Z,39.97
2023-01-21T09:08:40.666Z,40.47
2023-01-21T09:11:17.031Z,19.25
2023-01-21T09:18:55.293Z,19.73
2023-01-21T09:21:23.345Z,17.92
2023-01-21T09:23:50.563Z,20.98
2023-01-21T09:26:20.540Z,21.70
2023-01-21T09:29:01.656Z,21.50
2023-01-21T09:31:30.758Z,20.45
2023-01-21T09:34:04.461Z,19.15
2023-01-21T09:36:35.459Z,18.83
2023-01-21T09:39:04.035Z,20.65
2023-01-21T09:41:31.949Z,17.63
2023-01-21T09:44:21.745Z,18.23
2023-01-21T09:47:26.216Z,25.08
2023-01-21T09:50:14.820Z,19.88
2023-01-21T09:52:45.501Z,21.02
2023-01-21T09:55:27.764Z,21.95
2023-01-21T09:58:14.408Z,20.33
2023-01-21T10:01:08.875Z,24.95
2023-01-21T10:03:49.108Z,23.67
2023-01-21T10:06:45.960Z,21.33
2023-01-21T10:09:38.115Z,21.60
2023-01-21T10:12:40.803Z,18.92
2023-01-21T10:15:56.136Z,16.95
2023-01-21T10:18:30.925Z,20.52
2023-01-21T10:21:04.529Z,21.50
2023-01-21T10:26:14.647Z,21.08
2023-01-21T10:28:51.270Z,16.60
2023-01-21T10:31:24.636Z,16.83
2023-01-21T10:36:58.959Z,12.50
2023-01-21T10:39:48.757Z,13.95
2023-01-21T10:42:37.325Z,11.68
2023-01-21T10:45:23.493Z,15.23
2023-01-21T10:48:20.751Z,17.55
2023-01-21T10:51:01.427Z,11.90
2023-01-21T10:53:47.288Z,13.50
2023-01-21T10:56:34.469Z,10.73
2023-01-21T10:59:11.750Z,12.05
2023-01-21T11:01:49.047Z,13.80
2023-01-21T11:04:25.807Z,14.73
2023-01-21T11:07:00.787Z,12.70
2023-01-21T11:09:32.955Z,10.93
2023-01-21T11:12:02.746Z,12.85
2023-01-21T11:14:30.315Z,14.38
2023-01-21T11:17:00.868Z,12.52
2023-01-21T11:19:33.447Z,11.75
2023-01-21T11:22:06.624Z,14.07
2023-01-21T11:24:45.011Z,16.17
2023-01-21T11:27:22.261Z,12.82
2023-01-21T11:29:51.165Z,9.85
2023-01-21T11:32:21.968Z,17.02
2023-01-21T11:34:54.025Z,9.57
2023-01-21T11:37:30.738Z,9.18
2023-01-21T11:40:22.279Z,12.48
2023-01-21T11:42:57.035Z,8.35
2023-01-21T11:45:33.497Z,13.48
2023-01-21T11:48:03.781Z,10.50
2023-01-21T11:50:43.030Z,8.73
2023-01-21T11:53:19.250Z,11.45
2023-01-21T11:55:54.437Z,15.45
2023-01-21T11:58:35.953Z,11.65
2023-01-21T12:01:09.191Z,12.07
2023-01-21T12:03:56.416Z,9.15
2023-01-21T12:06:31.840Z,10.18
2023-01-21T12:09:08.995Z,10.82
2023-01-21T12:11:41.052Z,15.18
2023-01-21T12:14:13.874Z,7.97
2023-01-21T12:16:49.438Z,8.70
2023-01-21T12:19:36.753Z,11.40
2023-01-21T12:22:20.988Z,10.00
2023-01-21T12:25:27.605Z,9.68
2023-01-21T12:28:35.313Z,7.95
2023-01-21T12:31:29.641Z,8.10
2023-01-21T12:34:40.997Z,8.77
2023-01-21T12:37:49.842Z,9.68
2023-01-21T12:40:36.296Z,9.55
2023-01-21T12:43:47.852Z,9.77
2023-01-21T12:46:23.929Z,7.05
2023-01-21T12:48:54.857Z,8.65
2023-01-21T12:51:37.562Z,7.53
2023-01-21T12:54:39.220Z,5.95
2023-01-21T12:57:33.495Z,10.38
2023-01-21T13:00:26.038Z,5.30
2023-01-21T13:03:31.937Z,6.32
2023-01-21T13:06:04.735Z,5.80
2023-01-21T13:09:11.670Z,5.32
2023-01-21T13:11:49.144Z,5.00
2023-01-21T13:14:29.293Z,7.13
2023-01-21T13:17:27.710Z,5.63
2023-01-21T13:20:05.825Z,7.85
2023-01-21T13:23:00.402Z,5.63
2023-01-21T13:25:50.925Z,7.85
2023-01-21T13:28:32.427Z,4.50
2023-01-21T13:31:15.240Z,6.35
2023-01-21T13:34:19.378Z,4.80
2023-01-21T13:37:41.578Z,4.60
2023-01-21T13:40:38.704Z,7.38
2023-01-21T13:43:36.219Z,6.50
2023-01-21T13:46:35.446Z,4.20
2023-01-21T13:49:38.802Z,5.03
2023-01-21T13:52:30.421Z,5.32
2023-01-21T13:55:14.175Z,6.75
2023-01-21T13:57:58.735Z,6.55
2023-01-21T14:00:33.567Z,5.80
2023-01-21T14:03:15.400Z,6.60
2023-01-21T14:06:05.631Z,6.03
2023-01-21T14:08:59.851Z,9.45
2023-01-21T14:14:21.643Z,8.27
2023-01-21T14:17:18.509Z,11.48
2023-01-21T14:20:44.686Z,8.77
2023-01-21T14:23:26.655Z,9.55
2023-01-21T14:26:07.481Z,11.75
2023-01-21T14:28:53.070Z,7.75
2023-01-21T14:32:07.361Z,6.25
2023-01-21T14:34:45.945Z,5.63
2023-01-21T14:37:20.261Z,8.25
2023-01-21T14:40:29.779Z,7.03
2023-01-21T14:43:00.611Z,6.60
2023-01-21T14:45:57.145Z,9.88
2023-01-21T14:48:34.473Z,9.93
2023-01-21T14:51:08.656Z,9.95
2023-01-21T14:53:51.302Z,6.93
2023-01-21T14:56:20.937Z,9.93
2023-01-21T14:58:59.517Z,8.43
2023-01-21T15:01:35.727Z,7.80
2023-01-21T15:04:09.063Z,10.15
2023-01-21T15:06:40.504Z,8.52
2023-01-21T15:09:18.745Z,7.88
2023-01-21T15:11:46.980Z,9.75
2023-01-21T15:14:43.198Z,10.32
2023-01-21T15:17:49.614Z,9.40
2023-01-21T15:20:55.031Z,8.23
2023-01-21T15:23:34.465Z,10.95
2023-01-21T15:26:32.841Z,8.57
2023-01-21T15:29:24.553Z,10.23
2023-01-21T15:31:53.267Z,7.68
2023-01-21T15:34:22.104Z,8.10
2023-01-21T15:36:57.732Z,6.13
2023-01-21T15:39:42.015Z,8.50
2023-01-21T15:42:44.208Z,7.57
2023-01-21T15:45:35.320Z,7.03
2023-01-21T15:48:27.523Z,7.28
2023-01-21T15:51:26.814Z,6.03
2023-01-21T15:54:15.573Z,8.77
2023-01-21T15:56:49.662Z,7.20
2023-01-21T15:59:41.880Z,7.07
2023-01-21T16:02:32.721Z,5.07
2023-01-21T16:05:21.537Z,8.23
2023-01-21T16:08:08.102Z,8.23
2023-01-21T16:11:05.399Z,5.82
2023-01-21T16:13:56.180Z,6.30
2023-01-21T16:16:41.664Z,5.97
2023-01-21T16:19:16.693Z,7.25
2023-01-21T16:21:59.329Z,6.35
2023-01-21T16:24:32.522Z,9.35
2023-01-21T16:27:25.132Z,5.70
2023-01-21T16:30:02.070Z,6.40
2023-01-21T16:32:36.381Z,8.50
2023-01-21T16:35:05.987Z,6.35
2023-01-21T16:37:36.817Z,6.55
2023-01-21T16:40:36.342Z,5.78
2023-01-21T16:43:27.096Z,7.07
2023-01-21T16:46:04.932Z,7.70
2023-01-21T16:49:57.714Z,7.38
2023-01-21T16:52:13.143Z,6.00
2023-01-21T16:54:57.221Z,8.55
2023-01-21T16:57:32.573Z,6.23
2023-01-21T17:01:19.060Z,8.27
2023-01-21T17:03:50.876Z,5.68
2023-01-21T17:06:26.394Z,7.60
2023-01-21T17:09:06.574Z,8.32
2023-01-21T17:11:38.271Z,8.38
2023-01-21T17:14:13.211Z,12.07
2023-01-21T17:16:43.140Z,15.88
2023-01-21T17:19:26.266Z,9.40
2023-01-21T17:22:00.598Z,8.50
2023-01-21T17:24:45.526Z,10.77
2023-01-21T17:27:24.833Z,22.73
2023-01-21T17:30:26.315Z,7.82
2023-01-21T17:33:00.161Z,28.15
2023-01-21T17:35:31.915Z,13.23
2023-01-21T17:38:04.198Z,8.68
2023-01-21T17:40:34.263Z,10.03
2023-01-21T17:43:23.711Z,8.40
2023-01-21T17:45:55.658Z,7.32
2023-01-21T17:48:36.753Z,7.60
2023-01-21T17:51:29.413Z,7.22
2023-01-21T17:54:05.721Z,8.68
2023-01-21T17:56:54.038Z,8.40
2023-01-21T17:59:41.853Z,7.45
2023-01-21T18:02:17.793Z,8.50
2023-01-21T18:04:48.489Z,8.82
2023-01-21T18:07:24.386Z,8.98
2023-01-21T18:09:54.870Z,7.95
2023-01-21T18:12:40.617Z,7.57
2023-01-21T18:15:10.086Z,8.82
2023-01-21T18:17:39.505Z,8.48
2023-01-21T18:20:17.767Z,8.85
2023-01-21T18:22:47.272Z,8.15
2023-01-21T18:25:22.723Z,7.97
2023-01-21T18:27:57.721Z,8.02
2023-01-21T18:30:29.042Z,10.48
2023-01-21T18:32:59.525Z,12.10
2023-01-21T18:35:35.798Z,9.68
2023-01-21T18:38:20.816Z,10.75
2023-01-21T18:40:59.865Z,9.73
2023-01-21T18:43:29.597Z,10.88
2023-01-21T18:46:03.114Z,12.15
2023-01-21T18:48:33.654Z,9.88
2023-01-21T18:51:03.406Z,12.75
2023-01-21T18:53:35.967Z,12.15
2023-01-21T18:58:36.474Z,10.60
2023-01-21T19:01:22.650Z,11.68
2023-01-21T19:03:56.735Z,10.38
2023-01-21T19:06:29.982Z,14.75
2023-01-21T19:09:42.446Z,11.30
2023-01-21T19:12:22.825Z,10.73
2023-01-21T19:14:56.887Z,10.20
2023-01-21T19:17:33.467Z,11.50
2023-01-21T19:20:04.503Z,11.68
2023-01-21T19:22:32.480Z,10.00
2023-01-21T19:25:00.782Z,10.32
2023-01-21T19:27:36.653Z,10.52
2023-01-21T19:30:35.104Z,11.13
2023-01-21T19:33:05.156Z,12.23
2023-01-21T19:35:40.005Z,11.40
2023-01-21T19:38:27.191Z,12.27
2023-01-21T19:40:56.735Z,11.70
2023-01-21T19:43:27.445Z,10.98
2023-01-21T19:45:59.541Z,10.55
2023-01-21T19:48:31.549Z,11.40
2023-01-21T19:51:00.196Z,10.73
2023-01-21T19:53:28.218Z,10.13
2023-01-21T19:55:56.740Z,12.90
2023-01-21T19:58:31.003Z,11.90
2023-01-21T20:00:59.255Z,11.13
2023-01-21T20:03:30.341Z,11.60
2023-01-21T20:06:05.174Z,11.80
2023-01-21T20:08:35.511Z,11.45
2023-01-21T20:11:03.681Z,12.57
2023-01-21T20:13:36.318Z,13.43
2023-01-21T20:16:15.038Z,11.48
2023-01-21T20:18:43.604Z,11.63
2023-01-21T20:21:12.599Z,12.75
2023-01-21T20:23:41.076Z,12.25
2023-01-21T20:26:16.928Z,11.73
2023-01-21T20:28:48.557Z,14.73
2023-01-21T20:31:16.478Z,13.55
2023-01-21T20:33:48.093Z,12.13
2023-01-21T20:36:28.640Z,13.63
2023-01-21T20:38:57.706Z,13.73
2023-01-21T20:41:34.158Z,14.57
2023-01-21T20:44:04.356Z,15.82
2023-01-21T20:46:33.447Z,15.00
2023-01-21T20:49:02.891Z,14.80
2023-01-21T20:51:31.091Z,14.95
2023-01-21T20:53:58.850Z,15.90
2023-01-21T20:56:34.886Z,17.52
2023-01-21T20:59:03.632Z,17.42
2023-01-21T21:01:37.658Z,14.57
2023-01-21T21:04:06.449Z,16.17
2023-01-21T21:06:35.863Z,15.35
2023-01-21T21:09:04.371Z,17.25
2023-01-21T21:11:32.696Z,13.32
2023-01-21T21:14:02.324Z,14.63
2023-01-21T21:16:32.221Z,13.73
2023-01-21T21:19:01.189Z,13.38
2023-01-21T21:21:30.313Z,13.60
2023-01-21T21:23:58.547Z,17.10
2023-01-21T21:26:29.636Z,13.68
2023-01-21T21:28:58.322Z,14.55
2023-01-21T21:31:32.468Z,14.00
2023-01-21T21:34:00.568Z,14.20
2023-01-21T21:36:28.557Z,16.02
2023-01-21T21:38:56.588Z,15.25
2023-01-21T21:41:45.122Z,14.95
2023-01-21T21:44:13.975Z,14.57
2023-01-21T21:47:04.460Z,16.65
2023-01-21T21:49:33.521Z,17.17
2023-01-21T21:52:03.276Z,15.45
2023-01-21T21:54:33.597Z,14.85
2023-01-21T21:57:01.629Z,15.73
2023-01-21T21:59:29.472Z,16.48
2023-01-21T22:01:59.078Z,19.30
2023-01-21T22:04:28.508Z,14.25
2023-01-21T22:07:04.550Z,18.33
2023-01-21T22:09:35.193Z,17.00
2023-01-21T22:12:05.130Z,15.20
2023-01-21T22:14:33.167Z,17.85
2023-01-21T22:17:03.345Z,17.63
2023-01-21T22:19:31.866Z,18.55
2023-01-21T22:21:59.911Z,16.38
2023-01-21T22:24:27.624Z,17.65
2023-01-21T22:26:55.169Z,16.63
2023-01-21T22:29:23.188Z,17.98
2023-01-21T22:31:51.117Z,21.15
2023-01-21T22:34:19.254Z,31.83
2023-01-21T22:36:49.033Z,23.27
2023-01-21T22:39:17.042Z,23.52
2023-01-21T22:41:46.836Z,27.63
2023-01-21T22:44:14.396Z,26.65
2023-01-21T22:46:42.888Z,21.00
2023-01-21T22:49:13.095Z,22.77
2023-01-21T22:51:45.280Z,20.83
2023-01-21T22:54:14.549Z,18.45
2023-01-21T22:56:52.492Z,18.95
2023-01-21T22:59:22.145Z,17.92
2023-01-21T23:01:52.000Z,21.83
2023-01-21T23:04:20.585Z,18.50
2023-01-21T23:06:55.868Z,17.88
2023-01-21T23:09:24.101Z,21.10
2023-01-21T23:11:53.212Z,18.60
2023-01-21T23:14:21.737Z,20.58
2023-01-21T23:16:55.939Z,22.30
2023-01-21T23:19:25.901Z,21.80
2023-01-21T23:21:54.905Z,16.92
2023-01-21T23:24:24.203Z,18.55
2023-01-21T23:26:54.386Z,26.30
2023-01-21T23:29:24.416Z,25.17
2023-01-21T23:31:55.010Z,18.60
2023-01-21T23:34:23.758Z,17.38
2023-01-21T23:36:51.721Z,16.25
2023-01-21T23:39:19.058Z,16.17
2023-01-21T23:41:46.923Z,16.83
2023-01-21T23:44:15.581Z,18.27
2023-01-21T23:46:44.169Z,17.27
2023-01-21T23:49:18.754Z,16.98
2023-01-21T23:51:50.027Z,16.80
2023-01-21T23:54:19.260Z,17.88
2023-01-21T23:56:47.448Z,18.02
2023-01-21T23:59:19.766Z,17.80
